sensor_id;sensor_type;location;lat;lon;timestamp;pressure;altitude;pressure_sealevel;temperature;humidity
6038;BME280;3047;42.600;23.470;2023-05-23T00:00:01;92959.84;;;11.76;100.00
6038;BME280;3047;42.600;23.470;2023-05-23T00:02:30;92964.44;;;11.65;100.00
6038;BME280;3047;42.600;23.470;2023-05-23T00:04:57;92945.81;;;11.68;100.00
6038;BME280;3047;42.600;23.470;2023-05-23T00:07:24;92959.28;;;11.68;100.00
6038;BME280;3047;42.600;23.470;2023-05-23T00:09:50;92947.97;;;11.55;100.00
6038;BME280;3047;42.600;23.470;2023-05-23T00:12:17;92948.66;;;11.58;100.00
6038;BME280;3047;42.600;23.470;2023-05-23T00:14:44;92933.44;;;11.60;100.00
6038;BME280;3047;42.600;23.470;2023-05-23T00:17:10;92935.16;;;11.59;100.00
6038;BME280;3047;42.600;23.470;2023-05-23T00:19:38;92939.22;;;11.63;100.00
6038;BME280;3047;42.600;23.470;2023-05-23T00:22:05;92934.88;;;11.67;100.00
6038;BME280;3047;42.600;23.470;2023-05-23T00:24:32;92932.88;;;11.52;100.00
6038;BME280;3047;42.600;23.470;2023-05-23T00:26:59;92933.53;;;11.57;100.00
6038;BME280;3047;42.600;23.470;2023-05-23T00:29:25;92939.22;;;11.63;100.00
6038;BME280;3047;42.600;23.470;2023-05-23T00:31:52;92931.47;;;11.68;100.00
6038;BME280;3047;42.600;23.470;2023-05-23T00:34:19;92922.91;;;11.71;100.00
6038;BME280;3047;42.600;23.470;2023-05-23T00:36:47;92937.19;;;11.73;100.00
6038;BME280;3047;42.600;23.470;2023-05-23T00:39:14;92930.38;;;11.75;100.00
6038;BME280;3047;42.600;23.470;2023-05-23T00:41:45;92933.50;;;11.83;100.00
6038;BME280;3047;42.600;23.470;2023-05-23T00:44:12;92931.78;;;11.82;100.00
6038;BME280;3047;42.600;23.470;2023-05-23T00:46:39;92928.56;;;11.79;100.00
6038;BME280;3047;42.600;23.470;2023-05-23T00:49:06;92919.19;;;11.81;100.00
6038;BME280;3047;42.600;23.470;2023-05-23T00:51:33;92921.00;;;11.77;100.00
6038;BME280;3047;42.600;23.470;2023-05-23T00:54:03;92886.91;;;11.64;100.00
6038;BME280;3047;42.600;23.470;2023-05-23T00:56:31;92917.47;;;11.83;100.00
6038;BME280;3047;42.600;23.470;2023-05-23T00:58:58;92927.94;;;11.72;100.00
6038;BME280;3047;42.600;23.470;2023-05-23T01:01:26;92926.97;;;11.76;100.00
6038;BME280;3047;42.600;23.470;2023-05-23T01:03:52;92931.22;;;11.74;100.00
6038;BME280;3047;42.600;23.470;2023-05-23T01:06:19;92933.81;;;11.73;100.00
6038;BME280;3047;42.600;23.470;2023-05-23T01:08:46;92935.53;;;11.72;100.00
6038;BME280;3047;42.600;23.470;2023-05-23T01:11:22;92930.75;;;11.64;100.00
6038;BME280;3047;42.600;23.470;2023-05-23T01:13:56;92925.84;;;11.60;100.00
6038;BME280;3047;42.600;23.470;2023-05-23T01:16:31;92900.09;;;11.49;100.00
6038;BME280;3047;42.600;23.470;2023-05-23T01:19:08;92921.44;;;11.65;100.00
6038;BME280;3047;42.600;23.470;2023-05-23T01:21:42;92875.56;;;11.27;100.00
6038;BME280;3047;42.600;23.470;2023-05-23T01:24:29;92918.19;;;11.61;100.00
6038;BME280;3047;42.600;23.470;2023-05-23T01:27:07;92899.19;;;11.51;100.00
6038;BME280;3047;42.600;23.470;2023-05-23T01:29:39;92932.06;;;11.75;100.00
6038;BME280;3047;42.600;23.470;2023-05-23T01:32:11;92926.31;;;11.71;100.00
6038;BME280;3047;42.600;23.470;2023-05-23T01:34:38;92901.00;;;11.46;100.00
6038;BME280;3047;42.600;23.470;2023-05-23T01:37:10;92895.38;;;11.39;100.00
6038;BME280;3047;42.600;23.470;2023-05-23T01:39:39;92910.94;;;11.52;100.00
6038;BME280;3047;42.600;23.470;2023-05-23T01:42:06;92920.78;;;11.60;100.00
6038;BME280;3047;42.600;23.470;2023-05-23T01:44:34;92920.22;;;11.52;100.00
6038;BME280;3047;42.600;23.470;2023-05-23T01:47:05;92919.72;;;11.66;100.00
6038;BME280;3047;42.600;23.470;2023-05-23T01:49:33;92921.25;;;11.71;100.00
6038;BME280;3047;42.600;23.470;2023-05-23T01:52:01;92924.06;;;11.62;100.00
6038;BME280;3047;42.600;23.470;2023-05-23T01:54:28;92924.13;;;11.60;100.00
6038;BME280;3047;42.600;23.470;2023-05-23T01:56:57;92921.59;;;11.60;100.00
6038;BME280;3047;42.600;23.470;2023-05-23T01:59:24;92923.56;;;11.52;100.00
6038;BME280;3047;42.600;23.470;2023-05-23T02:01:51;92921.72;;;11.57;100.00
6038;BME280;3047;42.600;23.470;2023-05-23T02:04:20;92914.94;;;11.58;100.00
6038;BME280;3047;42.600;23.470;2023-05-23T02:06:47;92918.25;;;11.60;100.00
6038;BME280;3047;42.600;23.470;2023-05-23T02:09:13;92910.13;;;11.52;100.00
6038;BME280;3047;42.600;23.470;2023-05-23T02:11:40;92923.88;;;11.68;100.00
6038;BME280;3047;42.600;23.470;2023-05-23T02:14:08;92920.00;;;11.58;100.00
6038;BME280;3047;42.600;23.470;2023-05-23T02:16:35;92911.00;;;11.51;100.00
6038;BME280;3047;42.600;23.470;2023-05-23T02:19:02;92919.41;;;11.51;100.00
6038;BME280;3047;42.600;23.470;2023-05-23T02:21:30;92859.59;;;11.25;100.00
6038;BME280;3047;42.600;23.470;2023-05-23T02:23:57;92909.31;;;11.50;100.00
6038;BME280;3047;42.600;23.470;2023-05-23T02:26:24;92892.84;;;11.39;100.00
6038;BME280;3047;42.600;23.470;2023-05-23T02:28:52;92906.84;;;11.48;100.00
6038;BME280;3047;42.600;23.470;2023-05-23T02:31:18;92913.53;;;11.51;100.00
6038;BME280;3047;42.600;23.470;2023-05-23T02:33:45;92907.91;;;11.43;100.00
6038;BME280;3047;42.600;23.470;2023-05-23T02:36:12;92912.69;;;11.50;100.00
6038;BME280;3047;42.600;23.470;2023-05-23T02:38:40;92909.28;;;11.51;100.00
6038;BME280;3047;42.600;23.470;2023-05-23T02:41:07;92924.41;;;11.53;100.00
6038;BME280;3047;42.600;23.470;2023-05-23T02:43:33;92913.38;;;11.55;100.00
6038;BME280;3047;42.600;23.470;2023-05-23T02:46:00;92914.03;;;11.60;100.00
6038;BME280;3047;42.600;23.470;2023-05-23T02:48:27;92916.38;;;11.65;100.00
6038;BME280;3047;42.600;23.470;2023-05-23T02:50:53;92905.78;;;11.55;100.00
6038;BME280;3047;42.600;23.470;2023-05-23T02:53:20;92905.81;;;11.54;100.00
6038;BME280;3047;42.600;23.470;2023-05-23T02:55:48;92906.16;;;11.68;100.00
6038;BME280;3047;42.600;23.470;2023-05-23T02:58:15;92900.44;;;11.63;100.00
6038;BME280;3047;42.600;23.470;2023-05-23T03:00:42;92894.53;;;11.62;100.00
6038;BME280;3047;42.600;23.470;2023-05-23T03:03:09;92889.53;;;11.61;100.00
6038;BME280;3047;42.600;23.470;2023-05-23T03:05:36;92885.72;;;11.51;100.00
6038;BME280;3047;42.600;23.470;2023-05-23T03:08:03;92878.13;;;11.51;100.00
6038;BME280;3047;42.600;23.470;2023-05-23T03:10:29;92882.56;;;11.68;100.00
6038;BME280;3047;42.600;23.470;2023-05-23T03:12:57;92892.53;;;11.72;100.00
6038;BME280;3047;42.600;23.470;2023-05-23T03:15:24;92856.44;;;11.44;100.00
6038;BME280;3047;42.600;23.470;2023-05-23T03:17:51;92896.25;;;11.62;100.00
6038;BME280;3047;42.600;23.470;2023-05-23T03:20:18;92904.66;;;11.62;100.00
6038;BME280;3047;42.600;23.470;2023-05-23T03:22:44;92896.47;;;11.56;100.00
6038;BME280;3047;42.600;23.470;2023-05-23T03:25:11;92895.38;;;11.63;100.00
6038;BME280;3047;42.600;23.470;2023-05-23T03:27:38;92893.28;;;11.74;100.00
6038;BME280;3047;42.600;23.470;2023-05-23T03:30:07;92891.53;;;11.76;100.00
6038;BME280;3047;42.600;23.470;2023-05-23T03:32:34;92878.16;;;11.73;100.00
6038;BME280;3047;42.600;23.470;2023-05-23T03:35:01;92878.81;;;11.78;100.00
6038;BME280;3047;42.600;23.470;2023-05-23T03:37:28;92914.81;;;12.09;100.00
6038;BME280;3047;42.600;23.470;2023-05-23T03:39:55;92909.53;;;12.16;100.00
6038;BME280;3047;42.600;23.470;2023-05-23T03:42:21;92912.81;;;12.18;100.00
6038;BME280;3047;42.600;23.470;2023-05-23T03:44:48;92913.63;;;12.18;100.00
6038;BME280;3047;42.600;23.470;2023-05-23T03:47:16;92916.78;;;12.25;100.00
6038;BME280;3047;42.600;23.470;2023-05-23T03:49:43;92916.50;;;12.32;100.00
6038;BME280;3047;42.600;23.470;2023-05-23T03:52:10;92916.22;;;12.40;100.00
6038;BME280;3047;42.600;23.470;2023-05-23T03:54:37;92898.47;;;12.40;100.00
6038;BME280;3047;42.600;23.470;2023-05-23T03:57:04;92893.94;;;12.48;100.00
6038;BME280;3047;42.600;23.470;2023-05-23T03:59:31;92899.56;;;12.55;100.00
6038;BME280;3047;42.600;23.470;2023-05-23T04:01:57;92910.31;;;12.61;100.00
6038;BME280;3047;42.600;23.470;2023-05-23T04:04:27;92912.59;;;12.68;100.00
6038;BME280;3047;42.600;23.470;2023-05-23T04:06:54;92909.75;;;12.75;100.00
6038;BME280;3047;42.600;23.470;2023-05-23T04:09:22;92923.38;;;12.73;100.00
6038;BME280;3047;42.600;23.470;2023-05-23T04:11:50;92918.44;;;12.70;100.00
6038;BME280;3047;42.600;23.470;2023-05-23T04:14:17;92939.34;;;12.75;100.00
6038;BME280;3047;42.600;23.470;2023-05-23T04:16:44;92950.06;;;12.81;100.00
6038;BME280;3047;42.600;23.470;2023-05-23T04:19:12;92944.09;;;12.82;100.00
6038;BME280;3047;42.600;23.470;2023-05-23T04:21:40;92944.38;;;12.76;100.00
6038;BME280;3047;42.600;23.470;2023-05-23T04:24:07;92941.31;;;12.68;100.00
6038;BME280;3047;42.600;23.470;2023-05-23T04:26:34;92933.03;;;12.63;100.00
6038;BME280;3047;42.600;23.470;2023-05-23T04:29:02;92929.56;;;12.66;100.00
6038;BME280;3047;42.600;23.470;2023-05-23T04:31:30;92927.97;;;12.63;100.00
6038;BME280;3047;42.600;23.470;2023-05-23T04:33:58;92889.31;;;12.58;100.00
6038;BME280;3047;42.600;23.470;2023-05-23T04:36:25;92912.81;;;12.83;100.00
6038;BME280;3047;42.600;23.470;2023-05-23T04:38:53;92923.91;;;12.81;100.00
6038;BME280;3047;42.600;23.470;2023-05-23T04:41:20;92922.50;;;12.74;100.00
6038;BME280;3047;42.600;23.470;2023-05-23T04:43:47;92928.78;;;12.85;100.00
6038;BME280;3047;42.600;23.470;2023-05-23T04:46:18;92926.78;;;12.94;100.00
6038;BME280;3047;42.600;23.470;2023-05-23T04:48:50;92933.00;;;13.07;100.00
6038;BME280;3047;42.600;23.470;2023-05-23T04:51:17;92937.53;;;13.21;100.00
6038;BME280;3047;42.600;23.470;2023-05-23T04:53:46;92942.16;;;13.31;100.00
6038;BME280;3047;42.600;23.470;2023-05-23T04:56:14;92937.78;;;13.35;100.00
6038;BME280;3047;42.600;23.470;2023-05-23T04:58:42;92945.16;;;13.41;100.00
6038;BME280;3047;42.600;23.470;2023-05-23T05:01:10;92892.00;;;13.18;100.00
6038;BME280;3047;42.600;23.470;2023-05-23T05:03:38;92947.44;;;13.47;100.00
6038;BME280;3047;42.600;23.470;2023-05-23T05:06:05;92944.06;;;13.47;100.00
6038;BME280;3047;42.600;23.470;2023-05-23T05:08:32;92943.88;;;13.51;100.00
6038;BME280;3047;42.600;23.470;2023-05-23T05:10:59;92953.91;;;13.54;100.00
6038;BME280;3047;42.600;23.470;2023-05-23T05:13:27;92953.91;;;13.54;100.00
6038;BME280;3047;42.600;23.470;2023-05-23T05:15:53;92949.84;;;13.50;100.00
6038;BME280;3047;42.600;23.470;2023-05-23T05:18:20;92958.78;;;13.59;100.00
6038;BME280;3047;42.600;23.470;2023-05-23T05:20:47;92947.31;;;13.50;100.00
6038;BME280;3047;42.600;23.470;2023-05-23T05:23:13;92963.03;;;13.58;100.00
6038;BME280;3047;42.600;23.470;2023-05-23T05:25:40;92961.53;;;13.54;100.00
6038;BME280;3047;42.600;23.470;2023-05-23T05:28:07;92954.97;;;13.49;100.00
6038;BME280;3047;42.600;23.470;2023-05-23T05:30:35;92961.75;;;13.48;100.00
6038;BME280;3047;42.600;23.470;2023-05-23T05:33:03;92936.69;;;13.41;100.00
6038;BME280;3047;42.600;23.470;2023-05-23T05:35:31;92960.00;;;13.50;100.00
6038;BME280;3047;42.600;23.470;2023-05-23T05:38:00;92930.69;;;13.43;100.00
6038;BME280;3047;42.600;23.470;2023-05-23T05:40:27;92951.38;;;13.54;100.00
6038;BME280;3047;42.600;23.470;2023-05-23T05:42:53;92951.91;;;13.41;100.00
6038;BME280;3047;42.600;23.470;2023-05-23T05:45:20;92952.44;;;13.28;100.00
6038;BME280;3047;42.600;23.470;2023-05-23T05:47:48;92954.91;;;13.50;100.00
6038;BME280;3047;42.600;23.470;2023-05-23T05:50:16;92959.53;;;13.61;100.00
6038;BME280;3047;42.600;23.470;2023-05-23T05:52:44;92952.94;;;13.57;100.00
6038;BME280;3047;42.600;23.470;2023-05-23T05:55:11;92960.22;;;13.65;100.00
6038;BME280;3047;42.600;23.470;2023-05-23T05:57:38;92963.53;;;13.67;100.00
6038;BME280;3047;42.600;23.470;2023-05-23T06:00:07;92967.53;;;13.72;100.00
6038;BME280;3047;42.600;23.470;2023-05-23T06:02:37;92971.53;;;13.78;100.00
6038;BME280;3047;42.600;23.470;2023-05-23T06:05:07;92974.63;;;13.84;100.00
6038;BME280;3047;42.600;23.470;2023-05-23T06:07:36;92950.53;;;13.74;100.00
6038;BME280;3047;42.600;23.470;2023-05-23T06:10:04;92967.50;;;13.93;100.00
6038;BME280;3047;42.600;23.470;2023-05-23T06:12:30;92972.31;;;13.99;100.00
6038;BME280;3047;42.600;23.470;2023-05-23T06:14:57;92965.13;;;14.08;100.00
6038;BME280;3047;42.600;23.470;2023-05-23T06:17:24;92962.31;;;14.15;100.00
6038;BME280;3047;42.600;23.470;2023-05-23T06:19:51;92953.53;;;14.03;100.00
6038;BME280;3047;42.600;23.470;2023-05-23T06:22:19;92969.53;;;14.24;100.00
6038;BME280;3047;42.600;23.470;2023-05-23T06:24:46;92973.66;;;14.26;100.00
6038;BME280;3047;42.600;23.470;2023-05-23T06:27:13;92968.03;;;14.39;100.00
6038;BME280;3047;42.600;23.470;2023-05-23T06:29:39;92960.13;;;14.45;100.00
6038;BME280;3047;42.600;23.470;2023-05-23T06:32:06;92963.03;;;14.56;100.00
6038;BME280;3047;42.600;23.470;2023-05-23T06:34:33;92954.81;;;14.51;100.00
6038;BME280;3047;42.600;23.470;2023-05-23T06:36:59;92961.88;;;14.63;100.00
6038;BME280;3047;42.600;23.470;2023-05-23T06:39:27;92971.00;;;14.67;100.00
6038;BME280;3047;42.600;23.470;2023-05-23T06:41:54;92968.97;;;14.74;100.00
6038;BME280;3047;42.600;23.470;2023-05-23T06:44:21;92975.34;;;14.82;100.00
6038;BME280;3047;42.600;23.470;2023-05-23T06:46:48;92969.91;;;14.90;100.00
6038;BME280;3047;42.600;23.470;2023-05-23T06:49:14;92972.91;;;14.98;100.00
6038;BME280;3047;42.600;23.470;2023-05-23T06:51:41;92963.97;;;15.08;100.00
6038;BME280;3047;42.600;23.470;2023-05-23T06:54:08;92966.88;;;15.18;100.00
6038;BME280;3047;42.600;23.470;2023-05-23T06:56:36;92949.06;;;15.18;100.00
6038;BME280;3047;42.600;23.470;2023-05-23T06:59:02;92942.22;;;15.20;100.00
6038;BME280;3047;42.600;23.470;2023-05-23T07:01:29;92966.97;;;15.34;100.00
6038;BME280;3047;42.600;23.470;2023-05-23T07:03:56;92965.09;;;15.38;100.00
6038;BME280;3047;42.600;23.470;2023-05-23T07:06:23;92965.25;;;15.52;100.00
6038;BME280;3047;42.600;23.470;2023-05-23T07:08:49;92968.31;;;15.58;100.00
6038;BME280;3047;42.600;23.470;2023-05-23T07:11:16;92918.75;;;15.31;100.00
6038;BME280;3047;42.600;23.470;2023-05-23T07:13:44;92967.72;;;15.71;100.00
6038;BME280;3047;42.600;23.470;2023-05-23T07:16:11;92961.34;;;15.79;100.00
6038;BME280;3047;42.600;23.470;2023-05-23T07:18:38;92953.19;;;15.90;100.00
6038;BME280;3047;42.600;23.470;2023-05-23T07:21:04;92952.94;;;15.95;100.00
6038;BME280;3047;42.600;23.470;2023-05-23T07:23:32;92949.91;;;16.04;100.00
6038;BME280;3047;42.600;23.470;2023-05-23T07:25:59;92947.34;;;16.21;100.00
6038;BME280;3047;42.600;23.470;2023-05-23T07:28:27;92929.97;;;16.28;100.00
6038;BME280;3047;42.600;23.470;2023-05-23T07:30:55;92944.88;;;16.51;100.00
6038;BME280;3047;42.600;23.470;2023-05-23T07:33:22;92901.47;;;16.37;100.00
6038;BME280;3047;42.600;23.470;2023-05-23T07:35:49;92943.59;;;16.76;100.00
6038;BME280;3047;42.600;23.470;2023-05-23T07:38:16;92933.03;;;16.98;100.00
6038;BME280;3047;42.600;23.470;2023-05-23T07:40:43;92942.13;;;17.18;100.00
6038;BME280;3047;42.600;23.470;2023-05-23T07:43:09;92941.56;;;17.43;100.00
6038;BME280;3047;42.600;23.470;2023-05-23T07:45:36;92938.38;;;17.53;100.00
6038;BME280;3047;42.600;23.470;2023-05-23T07:48:04;92934.63;;;17.75;100.00
6038;BME280;3047;42.600;23.470;2023-05-23T07:50:31;92939.84;;;18.02;100.00
6038;BME280;3047;42.600;23.470;2023-05-23T07:52:58;92938.56;;;18.23;100.00
6038;BME280;3047;42.600;23.470;2023-05-23T07:55:24;92934.53;;;18.48;100.00
6038;BME280;3047;42.600;23.470;2023-05-23T07:57:51;92912.75;;;18.55;100.00
6038;BME280;3047;42.600;23.470;2023-05-23T08:00:19;92915.34;;;18.82;100.00
6038;BME280;3047;42.600;23.470;2023-05-23T08:02:46;92935.53;;;19.14;100.00
6038;BME280;3047;42.600;23.470;2023-05-23T08:05:14;92940.41;;;19.44;100.00
6038;BME280;3047;42.600;23.470;2023-05-23T08:07:43;92937.03;;;19.70;100.00
6038;BME280;3047;42.600;23.470;2023-05-23T08:10:10;92936.31;;;19.94;100.00
6038;BME280;3047;42.600;23.470;2023-05-23T08:12:37;92938.97;;;20.18;100.00
6038;BME280;3047;42.600;23.470;2023-05-23T08:15:04;92905.94;;;20.13;100.00
6038;BME280;3047;42.600;23.470;2023-05-23T08:17:31;92931.03;;;20.46;100.00
6038;BME280;3047;42.600;23.470;2023-05-23T08:19:58;92944.22;;;20.66;100.00
6038;BME280;3047;42.600;23.470;2023-05-23T08:22:26;92939.78;;;20.81;100.00
6038;BME280;3047;42.600;23.470;2023-05-23T08:24:53;92945.66;;;21.07;100.00
6038;BME280;3047;42.600;23.470;2023-05-23T08:27:20;92950.50;;;21.22;100.00
6038;BME280;3047;42.600;23.470;2023-05-23T08:29:47;92952.94;;;21.37;100.00
6038;BME280;3047;42.600;23.470;2023-05-23T08:32:14;92949.03;;;21.55;100.00
6038;BME280;3047;42.600;23.470;2023-05-23T08:34:40;92953.97;;;21.69;100.00
6038;BME280;3047;42.600;23.470;2023-05-23T08:37:07;92943.03;;;21.90;100.00
6038;BME280;3047;42.600;23.470;2023-05-23T08:39:35;92948.69;;;22.06;100.00
6038;BME280;3047;42.600;23.470;2023-05-23T08:42:02;92946.84;;;22.19;100.00
6038;BME280;3047;42.600;23.470;2023-05-23T08:44:29;92947.94;;;22.28;100.00
6038;BME280;3047;42.600;23.470;2023-05-23T08:47:00;92956.94;;;22.45;100.00
6038;BME280;3047;42.600;23.470;2023-05-23T08:49:29;92949.53;;;22.63;100.00
6038;BME280;3047;42.600;23.470;2023-05-23T08:52:01;92952.91;;;22.75;100.00
6038;BME280;3047;42.600;23.470;2023-05-23T08:54:29;92954.41;;;22.88;99.16
6038;BME280;3047;42.600;23.470;2023-05-23T08:56:58;92944.09;;;23.11;100.00
6038;BME280;3047;42.600;23.470;2023-05-23T08:59:25;92941.97;;;23.16;93.35
6038;BME280;3047;42.600;23.470;2023-05-23T09:01:54;92944.06;;;23.22;91.38
6038;BME280;3047;42.600;23.470;2023-05-23T09:04:21;92923.56;;;23.20;93.50
6038;BME280;3047;42.600;23.470;2023-05-23T09:06:48;92936.91;;;23.26;90.07
6038;BME280;3047;42.600;23.470;2023-05-23T09:09:15;92933.47;;;23.36;93.57
6038;BME280;3047;42.600;23.470;2023-05-23T09:11:42;92932.28;;;23.08;80.46
6038;BME280;3047;42.600;23.470;2023-05-23T09:14:11;92928.13;;;23.17;81.35
6038;BME280;3047;42.600;23.470;2023-05-23T09:16:45;92904.28;;;23.15;81.58
6038;BME280;3047;42.600;23.470;2023-05-23T09:19:13;92928.25;;;23.27;78.66
6038;BME280;3047;42.600;23.470;2023-05-23T09:21:43;92918.34;;;23.43;80.51
6038;BME280;3047;42.600;23.470;2023-05-23T09:24:10;92922.72;;;23.52;80.76
6038;BME280;3047;42.600;23.470;2023-05-23T09:26:37;92921.28;;;23.59;80.60
6038;BME280;3047;42.600;23.470;2023-05-23T09:29:04;92872.78;;;23.32;77.68
6038;BME280;3047;42.600;23.470;2023-05-23T09:31:33;92918.81;;;23.69;76.04
6038;BME280;3047;42.600;23.470;2023-05-23T09:34:00;92916.28;;;23.58;69.44
6038;BME280;3047;42.600;23.470;2023-05-23T09:36:28;92922.47;;;23.66;69.71
6038;BME280;3047;42.600;23.470;2023-05-23T09:39:01;92925.13;;;23.44;62.64
6038;BME280;3047;42.600;23.470;2023-05-23T09:41:29;92921.16;;;23.61;72.20
6038;BME280;3047;42.600;23.470;2023-05-23T09:43:56;92919.31;;;23.84;71.04
6038;BME280;3047;42.600;23.470;2023-05-23T09:46:27;92912.38;;;23.84;73.99
6038;BME280;3047;42.600;23.470;2023-05-23T09:48:55;92914.16;;;23.84;65.55
6038;BME280;3047;42.600;23.470;2023-05-23T09:51:24;92907.38;;;23.83;67.08
6038;BME280;3047;42.600;23.470;2023-05-23T09:53:52;92906.34;;;23.95;66.54
6038;BME280;3047;42.600;23.470;2023-05-23T09:56:19;92893.53;;;23.84;63.31
6038;BME280;3047;42.600;23.470;2023-05-23T09:58:49;92892.81;;;23.82;62.60
6038;BME280;3047;42.600;23.470;2023-05-23T10:01:16;92897.63;;;23.86;69.18
6038;BME280;3047;42.600;23.470;2023-05-23T10:03:45;92897.09;;;23.92;67.30
6038;BME280;3047;42.600;23.470;2023-05-23T10:06:18;92901.09;;;23.64;63.15
6038;BME280;3047;42.600;23.470;2023-05-23T10:08:51;92900.13;;;23.77;72.29
6038;BME280;3047;42.600;23.470;2023-05-23T10:14:16;92899.94;;;23.89;67.43
6038;BME280;3047;42.600;23.470;2023-05-23T10:16:52;92898.53;;;23.85;61.41
6038;BME280;3047;42.600;23.470;2023-05-23T10:19:23;92888.50;;;23.82;58.69
6038;BME280;3047;42.600;23.470;2023-05-23T10:21:56;92886.78;;;23.92;66.26
6038;BME280;3047;42.600;23.470;2023-05-23T10:24:24;92888.88;;;23.99;63.98
6038;BME280;3047;42.600;23.470;2023-05-23T10:26:51;92887.66;;;24.03;60.78
6038;BME280;3047;42.600;23.470;2023-05-23T10:29:19;92866.28;;;23.91;57.49
6038;BME280;3047;42.600;23.470;2023-05-23T10:31:47;92885.38;;;24.09;60.11
6038;BME280;3047;42.600;23.470;2023-05-23T10:34:19;92876.28;;;23.84;56.06
6038;BME280;3047;42.600;23.470;2023-05-23T10:36:55;92830.09;;;23.60;63.86
6038;BME280;3047;42.600;23.470;2023-05-23T10:39:41;92878.25;;;24.02;61.53
6038;BME280;3047;42.600;23.470;2023-05-23T10:42:15;92877.63;;;24.09;64.63
6038;BME280;3047;42.600;23.470;2023-05-23T10:44:42;92875.34;;;24.16;61.12
6038;BME280;3047;42.600;23.470;2023-05-23T10:47:09;92866.25;;;24.22;58.26
6038;BME280;3047;42.600;23.470;2023-05-23T10:49:38;92868.56;;;24.15;53.85
6038;BME280;3047;42.600;23.470;2023-05-23T10:52:07;92865.09;;;24.05;55.97
6038;BME280;3047;42.600;23.470;2023-05-23T10:54:34;92845.53;;;24.02;57.12
6038;BME280;3047;42.600;23.470;2023-05-23T10:57:02;92845.97;;;24.07;55.44
6038;BME280;3047;42.600;23.470;2023-05-23T10:59:29;92868.59;;;24.25;55.45
6038;BME280;3047;42.600;23.470;2023-05-23T11:01:56;92858.41;;;24.23;51.27
6038;BME280;3047;42.600;23.470;2023-05-23T11:04:26;92861.00;;;24.33;57.38
6038;BME280;3047;42.600;23.470;2023-05-23T11:06:54;92849.72;;;24.34;58.53
6038;BME280;3047;42.600;23.470;2023-05-23T11:09:22;92852.38;;;24.44;61.96
6038;BME280;3047;42.600;23.470;2023-05-23T11:11:54;92853.75;;;24.48;59.62
6038;BME280;3047;42.600;23.470;2023-05-23T11:14:31;92847.34;;;24.42;57.40
6038;BME280;3047;42.600;23.470;2023-05-23T11:16:58;92836.91;;;24.44;61.73
6038;BME280;3047;42.600;23.470;2023-05-23T11:19:26;92855.53;;;24.47;54.65
6038;BME280;3047;42.600;23.470;2023-05-23T11:21:56;92853.47;;;24.41;57.00
6038;BME280;3047;42.600;23.470;2023-05-23T11:24:50;92849.09;;;24.41;56.94
6038;BME280;3047;42.600;23.470;2023-05-23T11:27:17;92854.81;;;24.45;55.54
6038;BME280;3047;42.600;23.470;2023-05-23T11:29:56;92844.50;;;24.45;53.55
6038;BME280;3047;42.600;23.470;2023-05-23T11:32:23;92845.03;;;24.39;57.32
6038;BME280;3047;42.600;23.470;2023-05-23T11:34:50;92838.66;;;24.12;50.05
6038;BME280;3047;42.600;23.470;2023-05-23T11:37:17;92839.34;;;24.14;57.27
6038;BME280;3047;42.600;23.470;2023-05-23T11:39:44;92836.06;;;24.12;54.69
6038;BME280;3047;42.600;23.470;2023-05-23T11:42:12;92834.31;;;24.13;55.84
6038;BME280;3047;42.600;23.470;2023-05-23T11:44:39;92844.53;;;23.93;53.48
6038;BME280;3047;42.600;23.470;2023-05-23T11:47:06;92845.06;;;23.87;56.15
6038;BME280;3047;42.600;23.470;2023-05-23T11:49:34;92834.63;;;23.89;51.63
6038;BME280;3047;42.600;23.470;2023-05-23T11:52:03;92826.59;;;23.82;50.61
6038;BME280;3047;42.600;23.470;2023-05-23T11:54:31;92834.59;;;23.79;52.87
6038;BME280;3047;42.600;23.470;2023-05-23T11:56:58;92832.81;;;23.59;50.86
6038;BME280;3047;42.600;23.470;2023-05-23T11:59:26;92827.03;;;23.45;53.94
6038;BME280;3047;42.600;23.470;2023-05-23T12:01:53;92830.31;;;23.48;57.75
6038;BME280;3047;42.600;23.470;2023-05-23T12:04:20;92818.75;;;23.42;51.98
6038;BME280;3047;42.600;23.470;2023-05-23T12:06:48;92825.09;;;23.38;55.41
6038;BME280;3047;42.600;23.470;2023-05-23T12:09:15;92822.25;;;23.20;55.52
6038;BME280;3047;42.600;23.470;2023-05-23T12:11:43;92826.97;;;23.15;50.53
6038;BME280;3047;42.600;23.470;2023-05-23T12:14:13;92830.03;;;23.09;48.53
6038;BME280;3047;42.600;23.470;2023-05-23T12:16:42;92812.94;;;23.08;54.59
6038;BME280;3047;42.600;23.470;2023-05-23T12:19:10;92808.16;;;23.03;52.92
6038;BME280;3047;42.600;23.470;2023-05-23T12:21:41;92812.88;;;22.98;47.91
6038;BME280;3047;42.600;23.470;2023-05-23T12:24:15;92810.97;;;23.00;48.01
6038;BME280;3047;42.600;23.470;2023-05-23T12:26:49;92808.41;;;23.00;51.19
6038;BME280;3047;42.600;23.470;2023-05-23T12:29:20;92805.78;;;22.90;44.46
6038;BME280;3047;42.600;23.470;2023-05-23T12:31:49;92809.03;;;22.92;49.76
6038;BME280;3047;42.600;23.470;2023-05-23T12:34:18;92807.41;;;22.91;47.02
6038;BME280;3047;42.600;23.470;2023-05-23T12:36:45;92806.13;;;22.86;48.29
6038;BME280;3047;42.600;23.470;2023-05-23T12:39:14;92800.16;;;22.85;47.02
6038;BME280;3047;42.600;23.470;2023-05-23T12:41:41;92782.97;;;22.75;46.73
6038;BME280;3047;42.600;23.470;2023-05-23T12:44:09;92790.94;;;22.71;48.83
6038;BME280;3047;42.600;23.470;2023-05-23T12:46:38;92791.31;;;22.67;45.95
6038;BME280;3047;42.600;23.470;2023-05-23T12:49:06;92784.19;;;22.59;44.84
6038;BME280;3047;42.600;23.470;2023-05-23T12:51:33;92789.91;;;22.63;45.37
6038;BME280;3047;42.600;23.470;2023-05-23T12:54:00;92784.31;;;22.58;45.61
6038;BME280;3047;42.600;23.470;2023-05-23T12:56:27;92776.47;;;22.59;48.96
6038;BME280;3047;42.600;23.470;2023-05-23T12:58:54;92770.38;;;22.60;48.05
6038;BME280;3047;42.600;23.470;2023-05-23T13:01:21;92768.66;;;22.61;46.80
6038;BME280;3047;42.600;23.470;2023-05-23T13:03:48;92771.22;;;22.61;46.98
6038;BME280;3047;42.600;23.470;2023-05-23T13:06:16;92768.44;;;22.53;47.24
6038;BME280;3047;42.600;23.470;2023-05-23T13:08:43;92771.75;;;22.64;45.14